2011 Severe Tropical Cyclone DIANNE (2011045S16119)


IBTrACS version v04r00. Visit IBTrACS website for data access.
Please direct all questions to the IBTrACS Q and A forum

Storm track - Intensity - Wind Radii - Intensity Data - Source Data - All data

Summary Information

Satellite image near maximum intensity
Storm ID 2011045S16119
Start Feb 14 01Z
Max Intensity 80 kt (Feb 19 00Z), 960 mb (Feb 19 13Z)
End Feb 23 07Z
ATCF IDs ,SH162011
Track status Best track data.

Storm track plot

Map of storm track

Intensity plots

Map of storm track

Radial wind information

Map of storm track

Position and Intensity Table

BASIN ISO_TIME_________ NATURE LAT LON WMO WIND WMO PRES USA WIND USA PRES BOM WIND BOM PRES
degrees north degrees east kts mb kts mb kts mb
SI 2011-02-14 01:00:00 NR -15.90 119.30
SI 03:00:00 NR -16.13 119.06
SI 06:00:00 NR -16.60 118.60 20 1000 20 1000
SI 09:00:00 NR -17.30 117.98 20 1000
SI 12:00:00 NR -17.80 117.47 20 1000 20 1000
SI 14:49:00 NR -17.80 117.30 22 1000
SI 15:00:00 NR -17.82 117.22 22 1000
SI 18:00:00 NR -18.31 115.35 25 1000 20 1007 25 1000
SI 21:00:00 NR -18.44 114.99 22 1005 25 1000
SI 21:57:00 NR -18.52 114.76 23 1005 25 1000
SI 23:00:00 NR -18.61 114.41 24 1004 25 1000
SI 2011-02-15 00:00:00 TS -18.68 114.13 25 1000 25 1004 25 1000
SI 01:30:00 TS -18.80 113.70 26 1003 25 1000
SI 03:00:00 TS -18.88 113.32 27 1002 25 1000
SI 06:00:00 TS -18.99 112.74 25 1000 30 1000 25 1000
SI 09:00:00 TS -19.06 112.50 30 1000 25 1000
SI 10:30:00 TS -19.10 112.36 30 1000 25 1000
SI 12:00:00 TS -19.16 112.14 25 1000 30 1000 25 1000
SI 15:00:00 TS -19.18 111.96 30 1000 27 998
SI 15:30:00 TS -19.17 111.95 30 1000 27 997
SI 18:00:00 TS -19.15 111.88 30 996 30 1000 30 996
SI 21:00:00 TS -19.16 111.79 32 998 30 996
SI 22:38:00 TS -19.15 111.73 33 996 30 996
SI 2011-02-16 00:00:00 TS -19.12 111.67 30 996 35 996 30 996
SI 03:00:00 TS -19.08 111.55 37 994 30 996
SI 06:00:00 TS -19.07 111.46 30 996 40 993 30 996
SI 09:00:00 TS -19.06 111.37 42 991 30 996
SI 09:56:00 TS -19.05 111.33 43 990 30 996
SI 12:00:00 TS -19.05 111.25 30 996 45 989 30 996
SI 13:03:00 TS -19.05 111.23 44 989 32 994
SI 14:30:00 TS -19.14 111.11 35 993 42 990 35 993
SI 15:00:00 TS -19.15 111.07 42 991 35 992
SI 18:00:00 TS -19.10 111.00 40 990 40 993 40 990
SI 21:00:00 TS -19.05 111.01 40 993 42 987
SI 22:46:00 TS -19.02 110.96 40 993 43 986
SI 2011-02-17 00:00:00 TS -19.00 110.87 45 985 40 993 45 985
SI 03:00:00 TS -18.87 110.69 42 991 47 984
SI 06:00:00 TS -18.75 110.61 50 983 45 989 50 983
SI 09:00:00 TS -18.83 110.69 50 985 50 980
SI 10:59:00 TS -18.93 110.65 53 983 50 978
SI 12:00:00 TS -18.98 110.57 50 978 55 982 50 978
SI 15:00:00 TS -19.15 110.46 57 980 50 978
SI 18:00:00 TS -19.38 110.42 50 978 60 978 50 978
SI 21:00:00 TS -19.67 110.30 60 978 50 978
SI 21:50:00 TS -19.73 110.21 60 978 50 978
SI 22:45:00 TS -19.78 110.06 60 978 50 978
SI 2011-02-18 00:00:00 TS -19.85 110.00 50 978 60 978 50 978
SI 03:00:00 TS -20.11 109.74 62 976 50 978
SI 06:00:00 TS -20.42 109.39 50 978 65 974 50 978
SI 09:00:00 TS -20.64 109.11 65 974 50 978
SI 12:00:00 TS -20.81 108.79 50 978 65 974 50 978
SI 14:21:00 TS -20.90 108.47 68 971 51 977
SI 15:00:00 TS -20.92 108.41 70 970 52 977
SI 18:00:00 TS -21.02 108.25 55 976 75 967 55 976
SI 20:54:00 TS -21.31 108.14 77 965 59 973
SI 21:00:00 TS -21.31 108.13 77 965 60 973
SI 22:28:00 TS -21.38 108.12 78 964 62 971
SI 2011-02-19 00:00:00 TS -21.55 108.07 65 970 80 963 65 970
SI 03:00:00 TS -21.90 107.94 80 963 67 968
SI 06:00:00 TS -22.22 107.85 70 966 80 963 70 966
SI 09:00:00 TS -22.45 107.80 80 963 72 963
SI 10:57:00 TS -22.61 107.76 80 963 74 961
SI 12:00:00 TS -22.72 107.73 75 961 80 963 75 961
SI 13:25:00 TS -22.86 107.68 80 963 75 960
SI 15:00:00 TS -22.98 107.62 80 963 75 960
SI 18:00:00 TS -23.19 107.51 75 960 80 963 75 960
SI 21:00:00 TS -23.46 107.49 80 963 72 961
SI 22:11:00 TS -23.57 107.45 80 963 71 962
SI 2011-02-20 00:00:00 TS -23.72 107.33 70 963 80 963 70 963
SI 03:00:00 TS -24.01 107.03 77 965 70 963
SI 06:00:00 TS -24.27 106.68 70 963 75 967 70 963
SI 08:30:00 TS -24.42 106.41 75 967 67 964
SI 09:00:00 TS -24.44 106.36 75 967 67 965
SI 10:39:00 TS -24.52 106.18 75 967 66 966
SI 12:00:00 TS -24.59 106.01 65 967 75 967 65 967
SI 14:07:00 TS -24.72 105.69 73 968 65 967
SI 15:00:00 TS -24.77 105.55 72 968 65 967
SI 18:00:00 TS -24.94 105.06 65 968 70 970 65 968
SI 20:39:00 TS -25.09 104.62 67 971 62 971
SI 21:00:00 TS -25.10 104.57 67 972 62 972
SI 22:02:00 TS -25.14 104.41 66 972 61 973
SI 2011-02-21 00:00:00 TS -25.26 104.07 60 976 65 974 60 976
SI 01:12:00 TS -25.33 103.86 62 975 57 977
SI 03:00:00 TS -25.46 103.57 60 978 55 979
SI 06:00:00 TS -25.73 103.17 50 983 55 982 50 983
SI 07:17:00 TS -25.86 103.04 53 982 47 984
SI 09:00:00 TS -26.07 102.87 52 983 45 985
SI 12:00:00 TS -26.47 102.61 40 988 50 985 40 988
SI 13:11:00 TS -26.62 102.50 49 985 39 988
SI 15:00:00 TS -26.83 102.35 47 987 37 989
SI 18:00:00 TS -27.19 102.16 35 990 45 989 35 990
SI 19:42:00 TS -27.42 102.05 43 990 33 991
SI 21:00:00 TS -27.71 101.98 42 991 32 992
SI 21:50:00 TS -27.90 101.96 41 991 31 992
SI 2011-02-22 00:00:00 TS -28.30 102.00 30 994 40 993 30 994
SI 01:01:00 TS -28.51 102.00 39 993 29 994
SI 03:00:00 TS -28.93 102.05 37 994 27 995
SI 06:00:00 TS -29.53 102.22 25 997 35 996 25 997
SI 09:00:00 TS -30.10 102.48 32 998 25 997
SI 12:00:00 TS -30.49 102.70 25 998 30 1000 25 998
SI 13:53:00 NR -30.50 102.70 23 998
SI 15:00:00 NR -30.60 102.66 22 998
SI 18:00:00 NR -30.91 102.50 20 998 20 998
SI 21:00:00 NR -30.91 102.49 20 998
SI 22:54:00 NR -31.00 102.50 20 998
SI 2011-02-23 00:00:00 NR -31.14 102.50 20 999 20 999
SI 03:00:00 NR -31.43 102.52 20 999
SI 06:00:00 NR -31.63 102.57 20 1000 20 1000
SI 07:04:00 NR -31.70 102.60

Source Information

Agency Information
USA bsh162011.dat
TOKYO
CMA
HKO
NEWDELHI
REUNION
BOM IDCKMSTM0S.csv:Line=24359:Dianne
NADI
WELLINGTON
DS824
TD9636
TD9635
NEUMANN
MLC

All available IBTrACS Data

SEASON BASIN SUBBASIN ISO_TIME_________ NATURE LAT LON WMO WIND WMO PRES WMO AGENCY DIST2LAND LANDFALL IFLAG USA AGENCY USA ATCF_ID USA LAT USA LON USA STATUS USA WIND USA PRES USA SSHS USA R34 USA R50 USA R64 USA POCI USA ROCI USA RMW USA EYE BOM LAT BOM LON BOM TYPE BOM WIND BOM PRES BOM TNUM BOM CI BOM RMW BOM R34 BOM ROCI BOM POCI BOM POS_METHOD BOM PRES_METHOD BOM GUST BOM GUST_PER STORM SPEED STORM DIR
Year degrees north degrees east kts mb km km degrees north degrees east kts mb 1 nmile nmile nmile mb nmile nmile nmile degrees north degrees east kts mb 1 1 nmile nmile nmile mb kts second kts degrees
2011 SI WA 2011-02-14 01:00:00 NR -15.90 119.30 bom 346 346 ______O_______ -1 -15.90 119.30 20 3 5 10 226
2011 SI WA 03:00:00 NR -16.13 119.06 356 356 ______P_______ -1 -16.13 119.06 20 12 224
2011 SI WA 06:00:00 NR -16.60 118.60 20 1000 bom 388 333 ______O_______ -1 -16.60 118.60 20 20 1000 1.00 1.00 90 1004 3 5 45 45 16 221
2011 SI WA 09:00:00 NR -17.30 117.98 333 297 ______P_______ -1 -17.30 117.98 20 20 1000 90 1004 16 222
2011 SI WA 12:00:00 NR -17.80 117.47 20 1000 bom 297 297 ______O_______ -1 -17.80 117.47 20 20 1000 1.00 1.00 90 1004 3 5 45 45 8 232
2011 SI WA 14:49:00 NR -17.80 117.30 bom 302 302 ______I_______ -1 -17.80 117.30 20 22 1000 90 1004 3 5 265
2011 SI WA 15:00:00 NR -17.82 117.22 305 281 ______P_______ -1 -17.82 117.22 20 22 1000 90 1004 36 255
2011 SI WA 18:00:00 NR -18.31 115.35 25 1000 bom 296 292 O_____O_______ jtwc_sh SH162011 -18.40 115.10 DB 20 1007 -3 1005 160 45 -18.29 115.41 20 25 1000 1.50 1.50 90 1004 3 5 45 45 22 254
2011 SI WA 21:00:00 NR -18.44 114.99 303 294 P_____P_______ SH162011 -18.61 114.50 DB 22 1005 -3 1005 160 45 -18.36 115.24 20 25 1000 164 1005 9 250
2011 SI WA 21:57:00 NR -18.52 114.76 bom 305 306 P_____I_______ SH162011 -18.67 114.31 DB 23 1005 -3 1005 160 45 -18.40 115.10 20 25 1000 188 1005 3 17 253
2011 SI WA 23:00:00 NR -18.61 114.41 bom 318 316 P_____I_______ SH162011 -18.74 114.10 DB 24 1004 -3 1005 160 45 -18.49 114.72 20 25 1000 214 1005 3 18 254
2011 SI WA 2011-02-15 00:00:00 TS -18.68 114.13 25 1000 bom 327 327 O_____O_______ jtwc_sh SH162011 -18.80 113.90 TD 25 1004 -1 1005 160 45 -18.57 114.35 20 25 1000 1.50 1.50 239 1006 3 5 45 45 17 255
2011 SI WA 01:30:00 TS -18.80 113.70 bom 345 341 P_____I_______ SH162011 -18.89 113.60 TD 26 1003 -1 1005 160 45 -18.70 113.80 20 25 1000 239 1006 3 16 256
2011 SI WA 03:00:00 TS -18.88 113.32 343 340 P_____P_______ SH162011 -18.97 113.31 TD 27 1002 -1 1005 160 45 -18.79 113.32 20 25 1000 239 1006 12 258
2011 SI WA 06:00:00 TS -18.99 112.74 25 1000 bom 351 349 O_____O_______ jtwc_sh SH162011 -19.10 112.80 TD 30 1000 -1 1005 160 45 -18.89 112.68 20 25 1000 2.00 2.00 239 1006 3 5 45 45 8 257
2011 SI WA 09:00:00 TS -19.06 112.50 349 349 P_____P_______ SH162011 -19.18 112.39 TD 30 1000 -1 1005 160 45 -18.94 112.61 20 25 1000 209 1005 5 254
2011 SI WA 10:30:00 TS -19.10 112.36 bom 354 354 P_____I_______ SH162011 -19.20 112.23 TD 30 1000 -1 1005 160 45 -19.00 112.50 20 25 1000 194 1004 3 7 254
2011 SI WA 12:00:00 TS -19.16 112.14 25 1000 bom 360 360 O_____O_______ jtwc_sh SH162011 -19.20 112.10 TD 30 1000 -1 1005 160 45 -19.11 112.18 20 25 1000 2.00 2.00 179 1004 3 5 45 45 5 258
2011 SI WA 15:00:00 TS -19.18 111.96 366 366 P_____P_______ SH162011 -19.16 111.92 TD 30 1000 -1 1003 160 45 -19.20 112.00 20 27 998 179 1004 3 264
2011 SI WA 15:30:00 TS -19.17 111.95 bom 372 372 P_____I_______ SH162011 -19.15 111.90 TD 30 1000 -1 1003 160 45 -19.20 112.00 20 27 997 179 1004 3 2 290
2011 SI WA 18:00:00 TS -19.15 111.88 30 996 bom 381 372 O_____O_______ jtwc_sh SH162011 -19.10 111.80 TD 30 1000 -1 1002 160 45 -19.20 111.96 20 30 996 2.50 2.50 179 1004 3 5 45 45 2 275
2011 SI WA 21:00:00 TS -19.16 111.79 378 378 P_____P_______ SH162011 -19.09 111.64 TD 32 998 -1 1002 160 37 -19.23 111.94 20 30 996 179 1004 2 271
2011 SI WA 22:38:00 TS -19.15 111.73 bom 394 394 P_____I_______ SH162011 -19.10 111.56 TD 33 996 -1 1002 160 33 -19.20 111.90 20 30 996 179 1004 3 3 291
2011 SI WA 2011-02-16 00:00:00 TS -19.12 111.67 30 996 bom 394 394 O_____O_______ jtwc_sh SH162011 -19.10 111.50 TS 35 996 0 1002 160 30 -19.13 111.83 20 30 996 2.50 2.50 179 1004 3 5 45 45 3 293
2011 SI WA 03:00:00 TS -19.08 111.55 400 400 P_____P_______ SH162011 -19.10 111.39 TS 37 994 0 1003 110 27 -19.06 111.71 20 30 996 179 1004 2 283
2011 SI WA 06:00:00 TS -19.07 111.46 30 996 bom 407 407 O_____O_______ jtwc_sh SH162011 -19.10 111.30 TS 40 993 0 30,40,40,35 1005 60 25 -19.04 111.62 20 30 996 2.50 2.50 179 1004 3 5 45 45 2 277
2011 SI WA 09:00:00 TS -19.06 111.37 413 413 P_____P_______ SH162011 -19.11 111.20 TS 42 991 0 37,47,50,42 1005 160 30 -19.01 111.53 20 30 996 239 1004 2 278
2011 SI WA 09:56:00 TS -19.05 111.33 bom 420 420 P_____I_______ SH162011 -19.11 111.17 TS 43 990 0 39,49,53,44 1005 191 31 -19.00 111.50 20 30 996 258 1004 3 2 273
2011 SI WA 12:00:00 TS -19.05 111.25 30 996 bom 429 420 O_____O_______ jtwc_sh SH162011 -19.10 111.10 TS 45 989 0 45,55,60,50 1005 260 35 -19.00 111.40 20 30 996 2.50 2.50 300 1004 3 5 45 45 2 275
2011 SI WA 13:03:00 TS -19.05 111.23 bom 436 427 P_____I_______ SH162011 -19.09 111.06 TS 44 989 0 45,53,59,50 1005 260 35 -19.00 111.40 20 32 994 300 1004 3 4 238
2011 SI WA 14:30:00 TS -19.14 111.11 35 993 bom 435 435 P_____O_______ SH162011 -19.07 111.01 TS 42 990 0 47,50,57,52 1005 260 35 -19.20 111.20 30 35 993 3.00 3.00 30 300 1004 3 5 49 49 6 235
2011 SI WA 15:00:00 TS -19.15 111.07 426 426 P_____P_______ SH162011 -19.07 110.99 TS 42 991 0 47,50,57,52 1005 260 35 -19.24 111.16 30 35 992 28 300 1004 2 290
2011 SI WA 18:00:00 TS -19.10 111.00 40 990 bom 442 442 O_____O_______ jtwc_sh SH162011 -19.00 110.90 TS 40 993 0 50,45,55,55 1005 260 35 -19.20 111.10 30 40 990 3.00 3.00 19 300 1004 3 5 55 55 1 332
2011 SI WA 21:00:00 TS -19.05 111.01 450 450 P_____P_______ SH162011 -18.89 110.85 TS 40 993 0 52,45,47,55 1005 265 30 -19.20 111.17 30 42 987 17 300 1004 1 330
2011 SI WA 22:46:00 TS -19.02 110.96 bom 450 450 P_____I_______ SH162011 -18.83 110.82 TS 40 993 0 53,45,43,55 1005 267 27 -19.20 111.10 30 43 986 15 300 1004 3 3 290
2011 SI WA 2011-02-17 00:00:00 TS -19.00 110.87 45 985 bom 457 457 O_____O_______ jtwc_sh SH162011 -18.80 110.80 TS 40 993 0 55,45,40,55 1005 270 25 -19.20 110.94 30 45 985 3.00 3.00 15 300 1004 3 5 64 64 4 300
2011 SI WA 03:00:00 TS -18.87 110.69 480 480 P_____P_______ SH162011 -18.77 110.70 TS 42 991 0 57,52,50,57 1002 255 25 -18.97 110.68 30 47 984 15 300 1004 4 315
2011 SI WA 06:00:00 TS -18.75 110.61 50 983 bom 495 488 O_____O_______ jtwc_sh SH162011 -18.80 110.60 TS 45 989 0 60,60,60,60 999 240 25 -18.71 110.61 30 50 983 3.50 3.50 15 300 1004 3 5 69 69 0 334
2011 SI WA 09:00:00 TS -18.83 110.69 488 480 P_____P_______ SH162011 -18.88 110.54 TS 50 985 0 70,65,65,70 999 240 22 -18.79 110.84 30 50 980 12 255 1002 2 167
2011 SI WA 10:59:00 TS -18.93 110.65 bom 480 480 P_____I_______ SH162011 -18.95 110.51 TS 53 983 0 76,68,68,76 999 240 20 -18.90 110.80 30 50 978 10 225 1000 3 4 219
2011 SI WA 12:00:00 TS -18.98 110.57 50 978 bom 480 480 O_____O_______ jtwc_sh SH162011 -19.00 110.50 TS 55 982 0 80,70,70,80 35,30,30,35 999 240 20 -18.95 110.64 30 50 978 3.00 3.50 10 210 1000 3 5 69 69 4 219
2011 SI WA 15:00:00 TS -19.15 110.46 480 467 P_____P_______ SH162011 -19.12 110.53 TS 57 980 0 80,70,70,80 35,30,30,35 999 245 20 -19.18 110.40 30 50 978 14 210 1000 4 200
2011 SI WA 18:00:00 TS -19.38 110.42 50 978 bom 467 454 O_____O_______ jtwc_sh SH162011 -19.30 110.50 TS 60 978 0 80,70,70,80 35,30,30,35 1000 250 20 -19.46 110.33 30 50 978 3.00 3.50 19 210 1000 3 5 69 69 5 196
2011 SI WA 21:00:00 TS -19.67 110.30 456 456 P_____P_______ SH162011 -19.58 110.30 TS 60 978 0 77,72,72,77 32,30,30,32 1000 250 20 -19.76 110.31 30 50 978 17 255 1001 6 209
2011 SI WA 21:50:00 TS -19.73 110.21 bom 465 459 P_____I_______ SH162011 -19.67 110.22 TS 60 978 0 76,73,73,76 31,30,30,31 1000 250 20 -19.80 110.20 30 50 978 16 267 1001 3 9 244
2011 SI WA 22:45:00 TS -19.78 110.06 bom 468 468 P_____I_______ SH162011 -19.76 110.13 TS 60 978 0 76,73,73,76 31,30,30,31 1000 250 20 -19.80 110.00 30 50 978 15 281 1001 3 6 239
2011 SI WA 2011-02-18 00:00:00 TS -19.85 110.00 50 978 bom 477 471 O_____O_______ jtwc_sh SH162011 -19.90 110.00 TS 60 978 0 75,75,75,75 30,30,30,30 1000 250 20 -19.80 110.00 30 50 978 3.50 3.50 15 300 1002 3 5 69 69 6 223
2011 SI WA 03:00:00 TS -20.11 109.74 489 484 P_____P_______ SH162011 -20.22 109.71 TS 62 976 0 75,75,75,75 30,30,30,30 1000 250 20 -20.00 109.77 30 50 978 12 300 1002 8 225
2011 SI WA 06:00:00 TS -20.42 109.39 50 978 bom 499 499 O_____O_______ jtwc_sh SH162011 -20.50 109.40 TY 65 974 1 75,75,75,75 30,30,30,30 1000 250 20 -20.33 109.38 30 50 978 3.50 3.50 10 300 1002 3 5 69 69 8 228
2011 SI WA 09:00:00 TS -20.64 109.11 516 511 P_____P_______ SH162011 -20.67 109.10 TY 65 974 1 87,82,92,92 35,32,35,35 998 220 20 -20.61 109.12 30 50 978 12 300 1002 7 235
2011 SI WA 12:00:00 TS -20.81 108.79 50 978 bom 535 535 O_____O_______ jtwc_sh SH162011 -20.80 108.80 TY 65 974 1 100,90,110,110 40,35,40,40 996 190 20 -20.82 108.78 30 50 978 3.50 3.50 15 300 1002 3 5 69 69 7 246
2011 SI WA 14:21:00 TS -20.90 108.47 bom 559 559 P_____I_______ SH162011 -20.90 108.54 TY 68 971 1 96,95,110,104 38,38,41,38 997 213 21 -20.90 108.40 30 51 977 15 300 1002 3 5 7 253
2011 SI WA 15:00:00 TS -20.92 108.41 569 569 P_____P_______ SH162011 -20.94 108.47 TY 70 970 1 95,97,110,102 37,40,42,37 997 220 22 -20.90 108.35 30 52 977 15 300 1002 4 241
2011 SI WA 18:00:00 TS -21.02 108.25 55 976 bom 585 575 O_____O_______ jtwc_sh SH162011 -21.10 108.20 TY 75 967 1 90,105,110,95 35,45,45,35 20,25,25,20 999 250 25 -20.94 108.29 30 55 976 4.00 4.00 15 300 1002 3 5 75 75 5 213
2011 SI WA 20:54:00 TS -21.31 108.14 bom 585 1177 P_____I_______ SH162011 -21.32 108.07 TY 77 965 1 109,121,124,121 42,52,52,42 22,29,29,22 999 254 22 -21.30 108.20 30 59 973 12 300 1002 3 6 199
2011 SI WA 21:00:00 TS -21.31 108.13 585 582 P_____P_______ SH162011 -21.33 108.07 TY 77 965 1 110,122,125,122 42,52,52,42 22,30,30,22 999 255 22 -21.30 108.20 30 60 973 12 300 1003 3 0
2011 SI WA 22:28:00 TS -21.38 108.12 bom 582 579 P_____I_______ SH162011 -21.46 108.03 TY 78 964 1 119,131,132,135 46,56,56,46 23,32,32,23 999 257 21 -21.30 108.20 30 62 971 11 300 1003 3 5 195
2011 SI WA 2011-02-19 00:00:00 TS -21.55 108.07 65 970 bom 579 577 O_____O_______ jtwc_sh SH162011 -21.60 108.00 TY 80 963 1 130,140,140,150 50,60,60,50 25,35,35,25 999 260 20 -21.50 108.13 40 65 970 4.50 4.50 10 139,119,90,90 300 1004 3 5 89 89 7 197
2011 SI WA 03:00:00 TS -21.90 107.94 591 587 P_____P_______ SH162011 -21.90 107.89 TY 80 963 1 130,140,145,147 57,62,65,55 30,35,35,30 999 265 20 -21.90 108.00 40 67 968 10 139,119,90,90 300 1004 7 197
2011 SI WA 06:00:00 TS -22.22 107.85 70 966 bom 597 596 O_____O_______ jtwc_sh SH162011 -22.20 107.80 TY 80 963 1 130,140,150,145 65,65,70,60 35,35,35,35 1000 270 20 -22.24 107.89 40 70 966 4.50 4.50 10 139,119,90,90 300 1004 4 5 99 99 6 194
2011 SI WA 09:00:00 TS -22.45 107.80 596 595 P_____P_______ SH162011 -22.46 107.75 TY 80 963 1 130,140,150,145 65,65,70,60 35,35,35,35 1000 270 22 -22.43 107.84 40 72 963 10 114,104,104,74 269 1004 5 192
2011 SI WA 10:57:00 TS -22.61 107.76 bom 595 595 P_____I_______ SH162011 -22.62 107.72 TY 80 963 1 130,140,150,145 65,65,70,60 35,35,35,35 1000 270 24 -22.60 107.80 40 74 961 10 98,95,113,64 249 1004 4 5 6 191
2011 SI WA 12:00:00 TS -22.72 107.73 75 961 bom 605 602 O_____O_______ jtwc_sh SH162011 -22.70 107.70 TY 80 963 1 130,140,150,145 65,65,70,60 35,35,35,35 1000 270 25 20 -22.73 107.76 40 75 961 4.50 4.50 10 90,90,119,59 239 1004 4 5 104 104 6 197
2011 SI WA 13:25:00 TS -22.86 107.68 bom 602 602 P_____I_______ SH162011 -22.82 107.66 TY 80 963 1 134,142,150,143 65,65,68,58 35,35,35,35 1000 270 25 -22.90 107.70 40 75 960 10 239 1004 4 5 6 201
2011 SI WA 15:00:00 TS -22.98 107.62 609 607 P_____P_______ SH162011 -22.95 107.61 TY 80 963 1 140,145,150,142 65,65,67,57 35,35,35,35 1000 270 25 -23.02 107.63 40 75 960 10 239 1004 5 206
2011 SI WA 18:00:00 TS -23.19 107.51 75 960 bom 614 609 O_____O_______ jtwc_sh SH162011 -23.20 107.50 TY 80 963 1 150,150,150,140 65,65,65,55 35,35,35,35 1000 270 25 15 -23.17 107.52 40 75 960 4.50 4.50 10 239 1004 4 5 104 104 5 194
2011 SI WA 21:00:00 TS -23.46 107.49 607 605 P_____P_______ SH162011 -23.44 107.44 TY 80 963 1 140,140,140,125 65,65,65,55 32,32,32,32 1000 270 25 -23.48 107.54 40 72 961 10 224 1003 6 189
2011 SI WA 22:11:00 TS -23.57 107.45 bom 615 613 P_____I_______ SH162011 -23.54 107.40 TY 80 963 1 136,136,136,119 65,65,65,55 31,31,31,31 1000 270 25 -23.60 107.50 40 71 962 10 218 1002 4 6 210
2011 SI WA 2011-02-20 00:00:00 TS -23.72 107.33 70 963 bom 623 622 O_____O_______ jtwc_sh SH162011 -23.70 107.30 TY 80 963 1 130,130,130,110 65,65,65,55 30,30,30,30 1000 270 25 25 -23.74 107.35 40 70 963 4.00 4.50 10 210 1002 4 5 99 99 7 221
2011 SI WA 03:00:00 TS -24.01 107.03 650 649 P_____P_______ SH162011 -24.02 106.98 TY 77 965 1 135,145,142,122 60,62,60,55 30,30,30,30 1000 257 27 -24.01 107.08 40 70 963 10 210 1002 8 227
2011 SI WA 06:00:00 TS -24.27 106.68 70 963 bom 678 678 O_____O_______ jtwc_sh SH162011 -24.30 106.60 TY 75 967 1 140,160,155,135 55,60,55,55 30,30,30,30 1000 245 30 10 -24.25 106.76 40 70 963 4.50 4.50 10 210 1002 4 5 99 99 8 234
2011 SI WA 08:30:00 TS -24.42 106.41 bom 708 708 P_____I_______ SH162011 -24.44 106.37 TY 75 967 1 146,157,155,137 52,60,57,52 30,30,30,30 1000 245 30 -24.39 106.46 40 67 964 10 197 1002 4 7 240
2011 SI WA 09:00:00 TS -24.44 106.36 708 708 P_____P_______ SH162011 -24.46 106.32 TY 75 967 1 147,157,155,137 52,60,57,52 30,30,30,30 1000 245 30 -24.42 106.40 40 67 965 10 194 1002 7 245
2011 SI WA 10:39:00 TS -24.52 106.18 bom 728 728 P_____I_______ SH162011 -24.54 106.16 TY 75 967 1 151,156,155,138 51,60,58,51 30,30,30,30 1000 245 30 -24.50 106.20 40 66 966 10 185 1002 4 7 245
2011 SI WA 12:00:00 TS -24.59 106.01 65 967 bom 748 748 O_____O_______ jtwc_sh SH162011 -24.60 106.00 TY 75 967 1 155,155,155,140 50,60,60,50 30,30,30,30 1000 245 30 -24.58 106.01 40 65 967 5.00 5.00 10 179 1002 4 5 89 89 8 246
2011 SI WA 14:07:00 TS -24.72 105.69 bom 778 778 P_____I_______ SH162011 -24.73 105.68 TY 73 968 1 144,147,147,134 50,56,54,46 26,26,26,26 1000 239 24 -24.70 105.70 40 65 967 10 179 1002 4 9 247
2011 SI WA 15:00:00 TS -24.77 105.55 795 795 P_____P_______ SH162011 -24.79 105.53 TY 72 968 1 140,145,145,132 50,55,52,45 25,25,25,25 1000 237 22 -24.74 105.57 40 65 967 10 179 1002 10 249
2011 SI WA 18:00:00 TS -24.94 105.06 65 968 bom 833 833 O_____O_______ jtwc_sh SH162011 -25.00 105.00 TY 70 970 1 125,135,135,125 50,50,45,40 20,20,20,20 1000 230 15 -24.88 105.11 40 65 968 4.50 5.00 10 179 1002 4 5 89 89 10 249
2011 SI WA 20:39:00 TS -25.09 104.62 bom 878 878 P_____I_______ SH162011 -25.18 104.54 TY 67 971 1 127,137,130,120 50,52,49,40 1000 225 19 -25.00 104.70 40 62 971 13 205 1003 4 9 250
2011 SI WA 21:00:00 TS -25.10 104.57 878 878 P_____P_______ SH162011 -25.21 104.49 TY 67 972 1 127,137,130,120 50,52,50,40 1000 225 20 -25.00 104.65 40 62 972 14 209 1004 9 256
2011 SI WA 22:02:00 TS -25.14 104.41 bom 898 896 P_____I_______ SH162011 -25.28 104.31 TY 66 972 1 128,138,128,118 50,53,51,40 1000 223 21 -25.00 104.50 40 61 973 16 219 1004 3 10 251
2011 SI WA 2011-02-21 00:00:00 TS -25.26 104.07 60 976 bom 925 925 O_____O_______ jtwc_sh SH162011 -25.40 104.00 TY 65 974 1 130,140,125,115 50,55,55,40 1001 220 25 -25.12 104.13 30 60 976 3.50 4.00 19 59,90,59,39 239 1006 3 5 84 84 10 249
2011 SI WA 01:12:00 TS -25.33 103.86 bom 945 953 P_____I_______ SH162011 -25.45 103.82 TY 62 975 0 132,142,127,117 51,57,56,43 1001 220 25 -25.20 103.90 30 57 977 19 59,90,65,39 239 1006 3 10 246
2011 SI WA 03:00:00 TS -25.46 103.57 972 972 P_____P_______ SH162011 -25.53 103.56 TY 60 978 0 135,145,130,120 52,60,57,47 1001 220 25 -25.38 103.58 30 55 979 19 59,90,74,39 239 1006 9 237
2011 SI WA 06:00:00 TS -25.73 103.17 50 983 bom 1010 1010 O_____O_______ jtwc_sh SH162011 -25.70 103.20 TS 55 982 0 140,150,135,125 55,65,60,55 1001 220 25 -25.76 103.14 30 50 983 2.50 3.50 19 59,90,90,39 239 1006 3 5 69 69 9 230
2011 SI WA 07:17:00 TS -25.86 103.04 bom 1028 1027 P_____I_______ SH162011 -25.82 103.07 TS 53 982 0 134,145,130,120 1001 220 25 -25.90 103.00 30 47 984 20 54,90,90,39 232 1005 3 9 218
2011 SI WA 09:00:00 TS -26.07 102.87 1036 1036 P_____P_______ SH162011 -26.01 102.93 TS 52 983 0 127,140,125,115 1001 220 25 -26.12 102.82 30 45 985 21 49,90,90,39 224 1005 9 212
2011 SI WA 12:00:00 TS -26.47 102.61 40 988 bom 1064 1064 O_____O_______ jtwc_sh SH162011 -26.40 102.70 TS 50 985 0 115,130,115,105 1001 220 25 -26.54 102.52 30 40 988 2.00 3.00 24 39,90,90,39 210 1004 3 5 55 55 9 211
2011 SI WA 13:11:00 TS -26.62 102.50 bom 1074 1074 P_____I_______ SH162011 -26.55 102.59 TS 49 985 0 110,126,108,100 1000 219 25 -26.70 102.40 30 39 988 25 39,90,90,39 210 1004 3 9 213
2011 SI WA 15:00:00 TS -26.83 102.35 1094 1094 P_____P_______ SH162011 -26.78 102.43 TS 47 987 0 102,120,97,92 1000 217 27 -26.89 102.27 30 37 989 27 39,90,90,39 210 1004 8 208
2011 SI WA 18:00:00 TS -27.19 102.16 35 990 bom 1105 1105 O_____O_______ jtwc_sh SH162011 -27.20 102.20 TS 45 989 0 90,110,80,80 1000 215 30 -27.18 102.11 30 35 990 2.00 2.50 30 39,90,90,39 210 1004 3 5 49 49 8 204
2011 SI WA 19:42:00 TS -27.42 102.05 bom 1116 1127 P_____I_______ SH162011 -27.45 102.10 TS 43 990 0 90,110,80,80 -27.40 102.00 20 33 991 218 1004 3 11 197
2011 SI WA 21:00:00 TS -27.71 101.98 1128 1128 P_____P_______ SH162011 -27.65 102.05 TS 42 991 0 90,110,80,80 -27.76 101.92 20 32 992 224 1004 14 190
2011 SI WA 21:50:00 TS -27.90 101.96 bom 1131 1131 P_____I_______ SH162011 -27.80 102.02 TS 41 991 0 90,110,80,80 -28.00 101.90 20 31 992 228 1004 3 12 178
2011 SI WA 2011-02-22 00:00:00 TS -28.30 102.00 30 994 bom 1137 1137 O_____O_______ jtwc_sh SH162011 -28.20 102.00 TS 40 993 0 90,110,80,80 -28.39 102.00 20 30 994 2.00 2.00 239 1004 3 5 45 45 12 177
2011 SI WA 01:01:00 TS -28.51 102.00 bom 1140 1140 P_____I_______ SH162011 -28.42 102.00 TS 39 993 0 90,110,80,80 -28.60 102.00 20 29 994 239 1004 3 13 176
2011 SI WA 03:00:00 TS -28.93 102.05 1139 1139 P_____P_______ SH162011 -28.88 102.05 TS 37 994 0 90,110,80,80 -28.98 102.06 20 27 995 239 1004 13 169
2011 SI WA 06:00:00 TS -29.53 102.22 25 997 bom 1146 1134 O_____O_______ jtwc_sh SH162011 -29.60 102.20 TS 35 996 0 90,110,80,80 -29.48 102.24 20 25 997 239 1004 3 5 45 45 12 162
2011 SI WA 09:00:00 TS -30.10 102.48 1138 1132 P_____P_______ SH162011 -30.23 102.43 TS 32 998 -1 -30.03 102.51 20 25 997 209 1004 10 157
2011 SI WA 12:00:00 TS -30.49 102.70 25 998 bom 1136 1136 O_____O_______ jtwc_sh SH162011 -30.80 102.70 TD 30 1000 -1 -30.41 102.70 20 25 998 179 1004 3 5 45 45 5 155
2011 SI WA 13:53:00 NR -30.50 102.70 bom 1136 1136 ______I_______ SH162011 TD -1 -30.50 102.70 20 23 998 179 1004 3 2 200
2011 SI WA 15:00:00 NR -30.60 102.66 1140 1140 ______P_______ SH162011 TD -1 -30.60 102.66 20 22 998 179 1004 7 203
2011 SI WA 18:00:00 NR -30.91 102.50 20 998 bom 1170 1170 ______O_______ -1 -30.91 102.50 20 20 998 179 1004 3 5 45 45 3 205
2011 SI WA 21:00:00 NR -30.91 102.49 1170 1170 ______P_______ -1 -30.91 102.49 20 20 998 149 1005 1 0
2011 SI WA 22:54:00 NR -31.00 102.50 bom 1174 1174 ______I_______ -1 -31.00 102.50 20 20 998 130 1005 3 5 173
2011 SI WA 2011-02-23 00:00:00 NR -31.14 102.50 20 999 bom 1177 1177 ______O_______ -1 -31.14 102.50 20 20 999 119 1006 3 5 45 45 6 0
2011 SI WA 03:00:00 NR -31.43 102.52 1185 1179 ______P_______ -1 -31.43 102.52 20 20 999 5 174
2011 SI WA 06:00:00 NR -31.63 102.57 20 1000 bom 1179 1177 ______O_______ -1 -31.63 102.57 20 20 1000 3 5 45 45 4 166
2011 SI WA 07:04:00 NR -31.70 102.60 bom 1177 ______O_______ -1 -31.70 102.60 20 3 4 0